Time;durP1;ratioP1;P1;durP2;ratioP2;P2;SDS_P1;SDS_P2;PMS_P1;PMS_P2;Temp;Humidity;BMP_temperature;BMP_pressure;BME280_temperature;BME280_humidity;BME280_pressure;Samples;Min_cycle;Max_cycle;Signal;HPM_P1;HPM_P2
2023/04/13 12:15:47;;;;;;;;;1.50;0.00;;;;;;;;4993823;28;1295252;-77
2023/04/13 12:18:14;;;;;;;;;0.00;0.00;;;;;;;;5034789;28;8841;-76
2023/04/13 12:20:46;;;;;;;;;1.50;0.50;;;;;;;;5021698;28;10719;-76
2023/04/13 12:23:18;;;;;;;;;0.00;0.00;;;;;;;;5033728;28;10381;-78
2023/04/13 12:25:55;;;;;;;;;0.50;0.50;;;;;;;;5028818;28;10715;-77
2023/04/13 12:28:22;;;;;;;;;0.00;0.00;;;;;;;;5029086;28;9709;-77
2023/04/13 12:30:51;;;;;;;;;0.00;0.00;;;;;;;;5029632;28;9588;-77
2023/04/13 12:34:33;;;;;;;;;0.00;0.00;;;;;;;;5064559;27;13512;-83
2023/04/13 12:37:01;;;;;;;;;0.00;0.00;;;;;;;;5076500;28;9512;-83
2023/04/13 12:39:28;;;;;;;;;0.00;0.00;;;;;;;;5079491;28;9481;-76
2023/04/13 12:41:55;;;;;;;;;1.00;0.00;;;;;;;;5077795;28;9402;-80
2023/04/13 12:44:22;;;;;;;;;1.00;0.00;;;;;;;;5061012;28;9616;-80
2023/04/13 12:46:50;;;;;;;;;0.00;0.00;;;;;;;;5072426;28;9818;-82
2023/04/13 12:49:17;;;;;;;;;2.00;1.00;;;;;;;;5057745;28;9769;-83
2023/04/13 12:51:45;;;;;;;;;1.00;1.00;;;;;;;;5072521;28;10076;-81
2023/04/13 12:54:13;;;;;;;;;0.00;0.00;;;;;;;;5064350;28;10162;-80
2023/04/13 12:56:40;;;;;;;;;0.00;0.00;;;;;;;;5064041;28;10099;-71
2023/04/13 12:59:08;;;;;;;;;0.25;0.25;;;;;;;;5068587;28;10190;-83
2023/04/13 13:01:36;;;;;;;;;0.00;0.00;;;;;;;;5066527;28;10004;-75
2023/04/13 13:04:04;;;;;;;;;1.00;1.00;;;;;;;;5063975;28;9821;-77
2023/04/13 13:06:31;;;;;;;;;1.00;1.00;;;;;;;;5063713;28;9982;-72
2023/04/13 13:09:00;;;;;;;;;2.00;0.25;;;;;;;;5064074;28;10011;-73
2023/04/13 13:11:28;;;;;;;;;0.00;0.00;;;;;;;;5070209;28;9821;-73
2023/04/13 13:13:55;;;;;;;;;0.00;0.00;;;;;;;;5069088;28;9772;-75
2023/04/13 13:16:22;;;;;;;;;0.00;0.00;;;;;;;;5065991;28;9708;-75
2023/04/13 13:18:49;;;;;;;;;0.00;0.00;;;;;;;;5070131;28;9616;-74
2023/04/13 13:21:17;;;;;;;;;0.00;0.00;;;;;;;;5065335;28;9555;-74
2023/04/13 13:23:44;;;;;;;;;0.00;0.00;;;;;;;;5066996;28;9479;-73
2023/04/13 13:26:14;;;;;;;;;0.00;0.00;;;;;;;;5067688;28;9493;-71
2023/04/13 13:28:41;;;;;;;;;0.00;0.00;;;;;;;;5070840;28;9426;-72
2023/04/13 13:31:08;;;;;;;;;0.00;0.00;;;;;;;;5063787;28;9356;-77
2023/04/13 13:33:36;;;;;;;;;0.00;0.00;;;;;;;;5080148;28;9438;-76
2023/04/13 13:36:03;;;;;;;;;0.00;0.00;;;;;;;;5083096;28;9414;-76
2023/04/13 13:38:30;;;;;;;;;0.00;0.00;;;;;;;;5092944;28;9337;-77
2023/04/13 13:40:57;;;;;;;;;0.00;0.00;;;;;;;;5083932;28;9521;-76
2023/04/13 13:43:26;;;;;;;;;0.67;0.67;;;;;;;;5081569;28;9417;-76
2023/04/13 13:45:53;;;;;;;;;0.00;0.00;;;;;;;;5069492;28;9635;-77
2023/04/13 13:48:22;;;;;;;;;0.33;0.33;;;;;;;;5080326;28;9180;-76
2023/04/13 13:50:49;;;;;;;;;0.00;0.00;;;;;;;;5070730;28;8936;-77
2023/04/13 13:53:16;;;;;;;;;0.00;0.00;;;;;;;;5069497;28;8917;-73
2023/04/13 13:55:44;;;;;;;;;0.00;0.00;;;;;;;;5068858;28;8864;-77
2023/04/13 13:58:11;;;;;;;;;0.00;0.00;;;;;;;;5070038;28;8921;-74
2023/04/13 14:00:40;;;;;;;;;1.25;1.00;;;;;;;;5069065;28;8792;-79
2023/04/13 14:03:07;;;;;;;;;0.00;0.00;;;;;;;;5069955;28;8887;-76
2023/04/13 14:05:34;;;;;;;;;1.50;0.00;;;;;;;;5069288;28;8867;-79
2023/04/13 14:08:02;;;;;;;;;0.50;0.50;;;;;;;;5069719;28;8882;-80
2023/04/13 14:10:29;;;;;;;;;2.25;0.00;;;;;;;;5073225;28;8859;-79
2023/04/13 14:12:58;;;;;;;;;1.67;0.00;;;;;;;;5070056;28;8860;-82
2023/04/13 14:15:26;;;;;;;;;0.50;0.50;;;;;;;;5075235;28;8943;-81
2023/04/13 14:17:54;;;;;;;;;0.00;0.00;;;;;;;;5070148;28;8995;-78
2023/04/13 14:20:21;;;;;;;;;0.00;0.00;;;;;;;;5073860;28;8945;-80
2023/04/13 14:22:49;;;;;;;;;0.00;0.00;;;;;;;;5069255;28;8871;-77
2023/04/13 14:25:16;;;;;;;;;2.00;0.00;;;;;;;;5078505;28;8885;-78
2023/04/13 14:27:43;;;;;;;;;2.00;1.00;;;;;;;;5074989;28;8852;-74
2023/04/13 14:30:11;;;;;;;;;0.00;0.00;;;;;;;;5080017;28;8848;-78
2023/04/13 14:32:38;;;;;;;;;1.75;0.00;;;;;;;;5074834;28;8875;-75
2023/04/13 14:35:07;;;;;;;;;0.00;0.00;;;;;;;;5075426;28;8864;-76
2023/04/13 14:37:35;;;;;;;;;0.00;0.00;;;;;;;;5072383;28;8852;-77
2023/04/13 14:40:06;;;;;;;;;0.00;0.00;;;;;;;;5067951;28;8872;-77
2023/04/13 14:42:33;;;;;;;;;0.00;0.00;;;;;;;;5075986;28;9011;-75
2023/04/13 14:45:01;;;;;;;;;0.00;0.00;;;;;;;;5082150;28;9723;-77
2023/04/13 14:47:28;;;;;;;;;0.00;0.00;;;;;;;;5070244;28;8875;-72
2023/04/13 14:49:55;;;;;;;;;1.00;1.00;;;;;;;;5084684;28;8969;-76
2023/04/13 14:52:24;;;;;;;;;0.00;0.00;;;;;;;;5069280;28;8922;-71
2023/04/13 14:54:55;;;;;;;;;1.00;1.00;;;;;;;;5065622;28;8844;-79
2023/04/13 14:57:22;;;;;;;;;1.00;1.00;;;;;;;;5064788;28;8856;-78
2023/04/13 14:59:49;;;;;;;;;0.00;0.00;;;;;;;;5067060;28;8848;-75
2023/04/13 15:02:17;;;;;;;;;0.75;0.25;;;;;;;;5066712;28;8803;-73
2023/04/13 15:04:44;;;;;;;;;0.00;0.00;;;;;;;;5069574;28;8889;-75
2023/04/13 15:07:13;;;;;;;;;1.50;0.00;;;;;;;;5068213;28;8849;-78
2023/04/13 15:09:41;;;;;;;;;0.75;0.50;;;;;;;;5072770;28;8941;-78
2023/04/13 15:12:09;;;;;;;;;1.00;0.00;;;;;;;;5073312;28;8856;-77
2023/04/13 15:14:36;;;;;;;;;0.00;0.00;;;;;;;;5068013;28;8877;-76
2023/04/13 15:17:05;;;;;;;;;1.75;1.00;;;;;;;;5066688;28;8963;-72
2023/04/13 15:19:33;;;;;;;;;0.00;0.00;;;;;;;;5077085;28;8867;-77
2023/04/13 15:22:00;;;;;;;;;0.00;0.00;;;;;;;;5074101;28;8824;-77
2023/04/13 15:24:28;;;;;;;;;0.00;0.00;;;;;;;;5068483;28;8860;-76
2023/04/13 15:26:57;;;;;;;;;1.00;1.00;;;;;;;;5071422;28;8883;-75
2023/04/13 15:29:24;;;;;;;;;0.25;0.00;;;;;;;;5067556;28;8836;-78
2023/04/13 15:31:51;;;;;;;;;0.00;0.00;;;;;;;;5067331;28;8873;-78
2023/04/13 15:34:19;;;;;;;;;0.75;0.75;;;;;;;;5068010;28;8850;-74
2023/04/13 15:36:47;;;;;;;;;3.00;0.00;;;;;;;;5066832;28;8884;-78
2023/04/13 15:39:14;;;;;;;;;0.00;0.00;;;;;;;;5067875;28;9660;-72
2023/04/13 15:41:41;;;;;;;;;0.00;0.00;;;;;;;;5076771;28;8842;-78
2023/04/13 15:44:11;;;;;;;;;1.00;1.00;;;;;;;;5066336;28;8880;-78
2023/04/13 15:46:39;;;;;;;;;0.00;0.00;;;;;;;;5077458;28;8850;-77
2023/04/13 15:49:06;;;;;;;;;0.75;0.75;;;;;;;;5078662;28;9003;-76
2023/04/13 15:51:35;;;;;;;;;0.00;0.00;;;;;;;;5076579;28;9002;-78
2023/04/13 15:54:02;;;;;;;;;0.75;0.75;;;;;;;;5068364;28;8861;-77
2023/04/13 15:56:29;;;;;;;;;0.25;0.25;;;;;;;;5068076;28;8999;-77
2023/04/13 15:58:57;;;;;;;;;1.00;1.00;;;;;;;;5066756;28;9586;-78
2023/04/13 16:01:26;;;;;;;;;8.00;6.75;;;;;;;;5073583;28;8824;-72
2023/04/13 16:03:54;;;;;;;;;8.75;7.75;;;;;;;;5076329;28;8876;-77
2023/04/13 16:06:21;;;;;;;;;1.00;1.00;;;;;;;;5076983;28;8842;-77
2023/04/13 16:08:49;;;;;;;;;1.00;1.00;;;;;;;;5076367;28;8913;-75
2023/04/13 16:11:19;;;;;;;;;0.00;0.00;;;;;;;;5077228;28;8984;-78
2023/04/13 16:13:47;;;;;;;;;0.00;0.00;;;;;;;;5067469;28;9511;-77
2023/04/13 16:16:14;;;;;;;;;4.75;3.75;;;;;;;;5068497;28;8937;-77
2023/04/13 16:18:43;;;;;;;;;3.25;3.25;;;;;;;;5068528;28;8836;-78
2023/04/13 16:21:11;;;;;;;;;1.75;1.75;;;;;;;;5069130;28;8859;-77
2023/04/13 16:23:39;;;;;;;;;1.75;1.75;;;;;;;;5071667;28;8974;-78
2023/04/13 16:26:06;;;;;;;;;2.00;2.00;;;;;;;;5075355;28;8890;-76
2023/04/13 16:28:33;;;;;;;;;4.50;2.75;;;;;;;;5067699;28;8864;-76
2023/04/13 16:31:00;;;;;;;;;1.00;1.00;;;;;;;;5069545;28;8804;-76
2023/04/13 16:33:28;;;;;;;;;1.75;1.75;;;;;;;;5067212;28;8866;-74
2023/04/13 16:35:57;;;;;;;;;1.75;1.75;;;;;;;;5067015;28;9692;-76
2023/04/13 16:38:24;;;;;;;;;2.50;2.50;;;;;;;;5066943;28;9019;-73
2023/04/13 16:40:51;;;;;;;;;3.75;3.75;;;;;;;;5066910;28;8894;-79
2023/04/13 16:43:18;;;;;;;;;1.75;0.25;;;;;;;;5066617;28;8970;-76
2023/04/13 16:45:46;;;;;;;;;0.00;0.00;;;;;;;;5067226;28;8871;-77
2023/04/13 16:48:13;;;;;;;;;2.50;2.50;;;;;;;;5077365;28;8817;-75
2023/04/13 16:50:40;;;;;;;;;3.00;1.00;;;;;;;;5066954;28;8860;-80
2023/04/13 16:53:10;;;;;;;;;2.25;1.50;;;;;;;;5066975;28;9618;-76
2023/04/13 16:55:37;;;;;;;;;2.00;1.00;;;;;;;;5067013;28;9734;-74
2023/04/13 16:58:06;;;;;;;;;1.00;1.00;;;;;;;;5064333;28;8868;-75
2023/04/13 17:00:34;;;;;;;;;2.50;2.50;;;;;;;;5066549;28;8863;-80
2023/04/13 17:03:01;;;;;;;;;0.00;0.00;;;;;;;;5068408;28;8982;-80
2023/04/13 17:05:29;;;;;;;;;1.00;1.00;;;;;;;;5068238;28;8858;-73
2023/04/13 17:07:56;;;;;;;;;0.50;0.50;;;;;;;;5068459;28;8846;-74
2023/04/13 17:10:25;;;;;;;;;0.25;0.25;;;;;;;;5068532;28;8848;-82
2023/04/13 17:12:52;;;;;;;;;1.00;1.00;;;;;;;;5068422;28;8978;-80
2023/04/13 17:15:19;;;;;;;;;0.75;0.75;;;;;;;;5067365;28;8916;-79
2023/04/13 17:17:47;;;;;;;;;1.50;1.50;;;;;;;;5065644;28;8861;-75
2023/04/13 17:20:14;;;;;;;;;0.50;0.00;;;;;;;;5070125;28;8832;-77
2023/04/13 17:22:41;;;;;;;;;0.00;0.00;;;;;;;;5070376;28;8856;-80
2023/04/13 17:25:09;;;;;;;;;0.00;0.00;;;;;;;;5070383;28;8921;-81
2023/04/13 17:27:38;;;;;;;;;0.75;0.75;;;;;;;;5070559;28;8879;-78
2023/04/13 17:30:07;;;;;;;;;0.50;0.50;;;;;;;;5071114;28;8856;-79
2023/04/13 17:32:34;;;;;;;;;0.75;0.75;;;;;;;;5084172;28;8845;-74
2023/04/13 17:35:01;;;;;;;;;0.33;0.33;;;;;;;;5070431;28;9642;-80
2023/04/13 17:37:29;;;;;;;;;1.00;1.00;;;;;;;;5070758;28;8963;-77
2023/04/13 17:39:56;;;;;;;;;0.00;0.00;;;;;;;;5087972;28;8934;-78
2023/04/13 17:42:23;;;;;;;;;0.00;0.00;;;;;;;;5073455;28;9263;-77
2023/04/13 17:44:52;;;;;;;;;0.50;0.00;;;;;;;;5087501;28;9533;-77
2023/04/13 17:47:21;;;;;;;;;0.00;0.00;;;;;;;;5072222;28;9739;-80
2023/04/13 17:49:48;;;;;;;;;5.00;5.00;;;;;;;;5079886;28;9952;-76
2023/04/13 17:52:15;;;;;;;;;25.75;25.50;;;;;;;;5073283;28;10412;-77
2023/04/13 17:54:43;;;;;;;;;17.00;15.50;;;;;;;;5077489;28;11066;-77
2023/04/13 17:57:11;;;;;;;;;16.75;16.50;;;;;;;;5080227;28;10953;-79
2023/04/13 17:59:41;;;;;;;;;5.50;5.50;;;;;;;;5070197;28;11009;-73
2023/04/13 18:02:13;;;;;;;;;3.00;2.25;;;;;;;;5079569;28;10614;-86
2023/04/13 18:04:41;;;;;;;;;3.50;2.25;;;;;;;;5071085;28;10387;-88
2023/04/13 18:07:13;;;;;;;;;10.00;10.00;;;;;;;;5071950;28;10549;-90
2023/04/13 18:09:41;;;;;;;;;9.75;9.00;;;;;;;;5057169;28;10925;-86
2023/04/13 18:12:10;;;;;;;;;7.75;7.25;;;;;;;;5074221;28;10782;-87
2023/04/13 18:14:39;;;;;;;;;11.75;10.50;;;;;;;;5075292;28;10795;-86
2023/04/13 18:17:07;;;;;;;;;5.50;4.00;;;;;;;;5073800;28;10848;-86
2023/04/13 18:19:41;;;;;;;;;5.00;5.00;;;;;;;;5074664;28;10922;-86
2023/04/13 18:22:10;;;;;;;;;9.50;5.75;;;;;;;;5074712;28;10628;-89
2023/04/13 18:24:37;;;;;;;;;10.25;10.25;;;;;;;;5060262;28;10710;-88
2023/04/13 18:27:05;;;;;;;;;12.50;12.25;;;;;;;;5071274;28;10965;-88
2023/04/13 18:29:32;;;;;;;;;7.00;7.00;;;;;;;;5073682;28;11136;-86
2023/04/13 18:32:00;;;;;;;;;5.00;5.00;;;;;;;;5078096;28;10803;-86
2023/04/13 18:34:29;;;;;;;;;3.00;3.00;;;;;;;;5073356;28;10665;-89
2023/04/13 18:36:58;;;;;;;;;2.75;1.00;;;;;;;;5088037;28;10745;-89
2023/04/13 18:39:26;;;;;;;;;11.50;9.00;;;;;;;;5070497;28;10471;-85
2023/04/13 18:41:54;;;;;;;;;17.25;16.75;;;;;;;;5070714;28;11078;-87
2023/04/13 18:44:21;;;;;;;;;32.00;25.25;;;;;;;;5072816;28;11482;-88
2023/04/13 18:46:48;;;;;;;;;58.75;49.00;;;;;;;;5076283;28;11656;-87
2023/04/13 18:49:15;;;;;;;;;21.25;19.50;;;;;;;;5082705;28;11717;-87
2023/04/13 18:51:43;;;;;;;;;10.50;8.50;;;;;;;;5087549;28;11455;-88
2023/04/13 18:54:13;;;;;;;;;4.00;4.00;;;;;;;;5083346;28;11115;-88
2023/04/13 18:56:40;;;;;;;;;3.25;2.00;;;;;;;;5087323;28;10817;-90
2023/04/13 18:59:12;;;;;;;;;4.00;4.00;;;;;;;;5081877;28;10761;-88
2023/04/13 19:01:41;;;;;;;;;2.00;2.00;;;;;;;;5069774;28;10884;-87
2023/04/13 19:04:08;;;;;;;;;1.00;1.00;;;;;;;;5070357;28;10834;-86
2023/04/13 19:06:37;;;;;;;;;2.75;1.00;;;;;;;;5081358;28;10924;-87
2023/04/13 19:09:05;;;;;;;;;0.00;0.00;;;;;;;;5079965;28;10749;-86
2023/04/13 19:11:47;;;;;;;;;0.00;0.00;;;;;;;;5071302;28;10617;-86
2023/04/13 19:14:15;;;;;;;;;0.00;0.00;;;;;;;;5078274;28;10617;-87
2023/04/13 19:16:44;;;;;;;;;1.75;1.75;;;;;;;;5070145;28;10693;-86
2023/04/13 19:19:13;;;;;;;;;5.00;5.00;;;;;;;;5083980;28;10818;-86
2023/04/13 19:21:40;;;;;;;;;8.75;8.75;;;;;;;;5074943;28;11051;-87
2023/04/13 19:24:12;;;;;;;;;9.00;9.00;;;;;;;;5081410;28;10922;-86
2023/04/13 19:26:39;;;;;;;;;13.75;13.75;;;;;;;;5080982;28;11094;-88
2023/04/13 19:29:09;;;;;;;;;17.50;13.25;;;;;;;;5081251;28;11279;-87
2023/04/13 19:31:38;;;;;;;;;16.75;12.75;;;;;;;;5069509;28;11294;-87
2023/04/13 19:34:06;;;;;;;;;13.50;13.50;;;;;;;;5070267;28;11506;-87
2023/04/13 19:36:34;;;;;;;;;9.50;7.00;;;;;;;;5067236;28;11349;-87
2023/04/13 19:39:04;;;;;;;;;6.50;6.50;;;;;;;;5080803;28;11016;-86
2023/04/13 19:41:32;;;;;;;;;2.25;2.25;;;;;;;;5079648;28;11150;-87
2023/04/13 19:43:59;;;;;;;;;3.00;2.00;;;;;;;;5080008;28;11012;-87
2023/04/13 19:46:28;;;;;;;;;2.50;2.50;;;;;;;;5061401;28;10959;-87
2023/04/13 19:48:57;;;;;;;;;1.50;1.50;;;;;;;;5073637;28;11042;-87
2023/04/13 19:51:25;;;;;;;;;1.00;1.00;;;;;;;;5084887;28;10914;-87
2023/04/13 19:53:52;;;;;;;;;2.00;2.00;;;;;;;;5079803;28;11022;-85
2023/04/13 19:56:22;;;;;;;;;2.00;2.00;;;;;;;;5077571;28;10894;-85
2023/04/13 19:58:49;;;;;;;;;3.25;2.00;;;;;;;;5076835;28;11090;-86
2023/04/13 20:01:17;;;;;;;;;1.00;1.00;;;;;;;;5069747;28;10976;-86
2023/04/13 20:03:46;;;;;;;;;1.00;1.00;;;;;;;;5072990;28;11083;-85
2023/04/13 20:06:14;;;;;;;;;2.00;2.00;;;;;;;;5059915;28;11012;-86
2023/04/13 20:08:43;;;;;;;;;3.75;2.00;;;;;;;;5056289;28;11059;-87
2023/04/13 20:11:12;;;;;;;;;12.25;12.25;;;;;;;;5073036;28;11067;-86
2023/04/13 20:13:40;;;;;;;;;26.25;26.25;;;;;;;;5069579;28;11497;-86
2023/04/13 20:16:07;;;;;;;;;8.00;6.00;;;;;;;;5069359;28;11659;-87
2023/04/13 20:18:35;;;;;;;;;10.50;10.50;;;;;;;;5072240;28;11534;-85
2023/04/13 20:21:05;;;;;;;;;11.25;11.25;;;;;;;;5084166;28;11435;-86
2023/04/13 20:23:33;;;;;;;;;8.00;8.00;;;;;;;;5070032;28;11564;-87
2023/04/13 20:26:00;;;;;;;;;11.75;11.50;;;;;;;;5065553;28;11495;-86
2023/04/13 20:28:27;;;;;;;;;10.00;9.00;;;;;;;;5069483;28;11470;-85
2023/04/13 20:30:55;;;;;;;;;5.50;3.00;;;;;;;;5069538;28;11377;-86
2023/04/13 20:33:22;;;;;;;;;1.00;1.00;;;;;;;;5069517;28;11561;-85
2023/04/13 20:35:49;;;;;;;;;2.75;2.00;;;;;;;;5069475;28;11422;-86
2023/04/13 20:38:18;;;;;;;;;2.00;0.75;;;;;;;;5079332;28;11213;-86
2023/04/13 20:40:47;;;;;;;;;1.00;1.00;;;;;;;;5068833;28;11217;-86
2023/04/13 20:43:16;;;;;;;;;2.00;1.00;;;;;;;;5075942;28;11112;-86
2023/04/13 20:45:44;;;;;;;;;1.00;1.00;;;;;;;;5071181;28;11897;-86
2023/04/13 20:48:12;;;;;;;;;3.00;3.00;;;;;;;;5072622;28;11903;-86
2023/04/13 20:50:40;;;;;;;;;18.25;16.75;;;;;;;;5074346;28;11466;-86
2023/04/13 20:53:10;;;;;;;;;13.50;13.50;;;;;;;;5069995;28;11564;-85
2023/04/13 20:55:40;;;;;;;;;13.50;9.50;;;;;;;;5071657;28;11612;-86
2023/04/13 20:58:09;;;;;;;;;10.00;8.50;;;;;;;;5072826;28;11428;-85
2023/04/13 21:00:37;;;;;;;;;9.50;9.50;;;;;;;;5067919;28;11439;-85
2023/04/13 21:03:07;;;;;;;;;14.50;11.50;;;;;;;;5052827;28;11408;-85
2023/04/13 21:05:34;;;;;;;;;4.00;4.00;;;;;;;;5052701;28;11564;-85
2023/04/13 21:08:01;;;;;;;;;6.75;4.25;;;;;;;;5052643;28;11532;-87
2023/04/13 21:10:29;;;;;;;;;2.50;2.50;;;;;;;;5052765;28;11467;-85
2023/04/13 21:12:57;;;;;;;;;8.50;8.50;;;;;;;;5038714;28;11252;-85
2023/04/13 21:15:25;;;;;;;;;7.50;5.75;;;;;;;;5053005;28;11423;-86
2023/04/13 21:17:52;;;;;;;;;7.50;5.75;;;;;;;;5056788;28;12127;-88
2023/04/13 21:20:22;;;;;;;;;9.75;8.75;;;;;;;;5058405;28;11463;-87
2023/04/13 21:22:50;;;;;;;;;4.25;4.00;;;;;;;;5054257;28;11259;-86
2023/04/13 21:25:17;;;;;;;;;4.00;2.25;;;;;;;;5053947;28;11177;-86
2023/04/13 21:27:44;;;;;;;;;4.25;4.25;;;;;;;;5053029;28;11288;-84
2023/04/13 21:30:13;;;;;;;;;13.50;10.00;;;;;;;;5051821;28;11233;-85
2023/04/13 21:32:42;;;;;;;;;9.00;9.00;;;;;;;;5043795;28;11511;-85
2023/04/13 21:35:16;;;;;;;;;7.50;7.50;;;;;;;;5043888;28;11486;-85
2023/04/13 21:37:43;;;;;;;;;8.00;8.00;;;;;;;;5050564;28;11459;-85
2023/04/13 21:40:11;;;;;;;;;1.00;1.00;;;;;;;;5052504;28;11629;-86
2023/04/13 21:42:43;;;;;;;;;3.00;3.00;;;;;;;;5054419;28;11123;-85
2023/04/13 21:45:12;;;;;;;;;3.00;3.00;;;;;;;;5068670;28;11080;-85
2023/04/13 21:47:40;;;;;;;;;2.00;2.00;;;;;;;;5065975;28;11194;-86
2023/04/13 21:50:09;;;;;;;;;4.25;2.00;;;;;;;;5067809;28;11077;-85
2023/04/13 21:52:36;;;;;;;;;1.00;1.00;;;;;;;;5061127;28;11074;-85
2023/04/13 21:55:04;;;;;;;;;2.00;2.00;;;;;;;;5067772;28;11125;-85
2023/04/13 21:57:31;;;;;;;;;3.00;3.00;;;;;;;;5054746;28;10961;-86
2023/04/13 21:59:58;;;;;;;;;2.00;2.00;;;;;;;;5065061;28;11137;-86
2023/04/13 22:02:27;;;;;;;;;2.25;2.25;;;;;;;;5052653;28;11079;-86
2023/04/13 22:04:54;;;;;;;;;2.00;2.00;;;;;;;;5052031;28;11082;-85
2023/04/13 22:07:21;;;;;;;;;2.50;2.00;;;;;;;;5056803;28;11061;-85
2023/04/13 22:09:49;;;;;;;;;4.75;3.75;;;;;;;;5050386;28;11110;-85
2023/04/13 22:12:16;;;;;;;;;4.00;2.25;;;;;;;;5063670;28;11146;-86
2023/04/13 22:14:43;;;;;;;;;3.00;2.25;;;;;;;;5059597;28;11145;-86
2023/04/13 22:17:11;;;;;;;;;1.00;1.00;;;;;;;;5058022;28;11151;-86
2023/04/13 22:19:39;;;;;;;;;2.25;2.25;;;;;;;;5063397;28;11132;-87
2023/04/13 22:22:07;;;;;;;;;3.25;2.50;;;;;;;;5059970;28;11121;-86
2023/04/13 22:24:34;;;;;;;;;3.00;2.75;;;;;;;;5052666;28;11358;-86
2023/04/13 22:27:02;;;;;;;;;2.75;2.75;;;;;;;;5052088;28;11558;-85
2023/04/13 22:29:31;;;;;;;;;2.75;2.75;;;;;;;;5058005;28;11195;-85
2023/04/13 22:31:58;;;;;;;;;5.50;4.50;;;;;;;;5053284;28;11169;-84
2023/04/13 22:34:27;;;;;;;;;10.00;5.50;;;;;;;;5046972;28;11666;-87
2023/04/13 22:36:56;;;;;;;;;12.25;8.75;;;;;;;;5052072;28;11487;-85
2023/04/13 22:39:23;;;;;;;;;9.00;8.50;;;;;;;;5051657;28;11552;-87
2023/04/13 22:41:51;;;;;;;;;10.25;9.25;;;;;;;;5051909;28;11497;-87
2023/04/13 22:44:18;;;;;;;;;9.25;9.00;;;;;;;;5051901;28;11519;-88
2023/04/13 22:46:45;;;;;;;;;5.50;5.50;;;;;;;;5058904;28;11520;-88
2023/04/13 22:49:13;;;;;;;;;6.75;6.75;;;;;;;;5049478;28;11500;-88
2023/04/13 22:51:40;;;;;;;;;4.00;4.00;;;;;;;;5051086;28;11492;-88
2023/04/13 22:54:12;;;;;;;;;5.00;5.00;;;;;;;;5052976;28;11515;-88
2023/04/13 22:56:39;;;;;;;;;5.25;4.00;;;;;;;;5034759;28;11505;-87
2023/04/13 22:59:06;;;;;;;;;7.50;6.50;;;;;;;;5051839;28;11598;-87
2023/04/13 23:01:34;;;;;;;;;7.75;7.75;;;;;;;;5072560;28;11367;-88
2023/04/13 23:04:01;;;;;;;;;4.75;4.75;;;;;;;;5080550;28;11430;-88
2023/04/13 23:06:28;;;;;;;;;6.50;6.50;;;;;;;;5070536;28;11541;-88
2023/04/13 23:08:56;;;;;;;;;8.00;5.50;;;;;;;;5080124;28;11446;-88
2023/04/13 23:11:24;;;;;;;;;8.25;8.25;;;;;;;;5071109;28;11572;-87
2023/04/13 23:13:54;;;;;;;;;7.75;7.75;;;;;;;;5071088;28;11524;-87
2023/04/13 23:16:23;;;;;;;;;6.75;6.75;;;;;;;;5078622;28;11532;-87
2023/04/13 23:18:50;;;;;;;;;5.00;4.00;;;;;;;;5072974;28;11597;-87
2023/04/13 23:21:17;;;;;;;;;2.75;2.75;;;;;;;;5071675;28;11588;-87
2023/04/13 23:23:44;;;;;;;;;2.75;2.75;;;;;;;;5070555;28;11461;-87
2023/04/13 23:26:12;;;;;;;;;2.25;2.25;;;;;;;;5066425;28;11454;-87
2023/04/13 23:28:40;;;;;;;;;1.00;1.00;;;;;;;;5062584;28;11506;-86
2023/04/13 23:31:08;;;;;;;;;3.25;2.00;;;;;;;;5069813;28;11492;-86
2023/04/13 23:33:35;;;;;;;;;2.00;2.00;;;;;;;;5078082;28;11423;-86
2023/04/13 23:36:03;;;;;;;;;1.00;1.00;;;;;;;;5083046;28;11427;-85
2023/04/13 23:38:31;;;;;;;;;1.00;1.00;;;;;;;;5087454;28;11422;-85
2023/04/13 23:40:58;;;;;;;;;0.00;0.00;;;;;;;;5080570;28;11472;-85
2023/04/13 23:43:26;;;;;;;;;0.75;0.75;;;;;;;;5073127;28;11553;-87
2023/04/13 23:45:55;;;;;;;;;1.00;1.00;;;;;;;;5078107;28;11446;-86
2023/04/13 23:48:25;;;;;;;;;3.75;2.00;;;;;;;;5093658;28;11410;-83
2023/04/13 23:50:53;;;;;;;;;4.25;4.25;;;;;;;;5075711;28;11445;-86
2023/04/13 23:53:20;;;;;;;;;6.00;6.00;;;;;;;;5074985;28;11565;-86
2023/04/13 23:55:48;;;;;;;;;3.50;3.50;;;;;;;;5064885;28;11573;-86
2023/04/13 23:58:15;;;;;;;;;4.00;4.00;;;;;;;;5071238;28;11524;-87
